Flight Track Log - Related Links

Times and Time Zones

All times are in EDT time to prevent confusion due to time zone crossing. See the THU850 flight status page for this flight to view local times or setup timezone preferences in your user account.


Time Position Orientation Groundspeed Altitude Reporting Facility
EDT Latitude Longitude Course Direction KTS MPH feet Rate Location/Type
Fri 05:28:18 PM 49.8000 -92.6833 129° Southeast 150 173 2,100  Level Winnipeg Center
Fri 05:29:18 PM 49.7833 -92.6167 111° Southeast 180 207 4,100 1,900 Climbing Winnipeg Center
Fri 05:30:18 PM 49.7333 -92.5333 133° Southeast 190 219 5,900 1,800 Climbing Winnipeg Center
Fri 05:31:18 PM 49.7167 -92.4667 111° Southeast 190 219 7,700 1,750 Climbing Winnipeg Center
Fri 05:32:18 PM 49.6833 -92.4167 136° Southeast 200 230 9,400 1,650 Climbing Winnipeg Center
Fri 05:33:18 PM 49.6500 -92.3167 117° Southeast 210 242 11,000 1,500 Climbing Winnipeg Center
Fri 05:34:18 PM 49.6333 -92.2333 107° East 210 242 12,400 1,350 Climbing Winnipeg Center
Fri 05:35:18 PM 49.6000 -92.1667 128° Southeast 220 253 13,700 1,300 Climbing Winnipeg Center
Fri 05:36:18 PM 49.5500 -92.0833 133° Southeast 230 265 15,000 1,100 Climbing Winnipeg Center
Fri 05:37:18 PM 49.5167 -91.9833 117° Southeast 230 265 15,900 1,050 Climbing Winnipeg Center
Fri 05:38:18 PM 49.4833 -91.9167 128° Southeast 240 276 17,100 1,100 Climbing Winnipeg Center
Fri 05:39:18 PM 49.4500 -91.8167 117° Southeast 250 288 18,100 900 Climbing Winnipeg Center
Fri 05:40:18 PM 49.4000 -91.7167 128° Southeast 260 299 18,900 850 Climbing Winnipeg Center
Fri 05:41:18 PM 49.3667 -91.6500 128° Southeast 260 299 19,800 850 Climbing Winnipeg Center
Fri 05:42:18 PM 49.3333 -91.5500 117° Southeast 260 299 20,600 600 Climbing Winnipeg Center
Fri 05:43:18 PM 49.2833 -91.4500 127° Southeast 260 299 21,000 200 Climbing Winnipeg Center
Fri 05:44:18 PM 49.2500 -91.3500 117° Southeast 280 322 21,000  Level Winnipeg Center
Fri 05:45:18 PM 49.2000 -91.2333 123° Southeast 300 345 21,000  Level Winnipeg Center
Fri 05:46:18 PM 49.1500 -91.1333 127° Southeast 310 357 21,000 50 Level Winnipeg Center
Fri 05:47:18 PM 49.1167 -91.0167 114° Southeast 310 357 21,100 50 Climbing Winnipeg Center
Fri 05:48:18 PM 49.0667 -90.9167 127° Southeast 310 357 21,100 -50 Level Winnipeg Center
Fri 05:49:18 PM 49.0167 -90.7833 120° Southeast 310 357 21,000 -50 Descending Winnipeg Center
Fri 05:50:18 PM 48.9667 -90.6667 123° Southeast 320 368 21,000  Level Winnipeg Center
Fri 05:51:18 PM 48.9333 -90.5667 117° Southeast 310 357 21,000  Level Winnipeg Center
Fri 05:52:18 PM 48.8667 -90.4500 131° Southeast 310 357 21,000 50 Level Winnipeg Center
Fri 05:53:18 PM 48.8333 -90.3500 117° Southeast 300 345 21,100 -50 Climbing Winnipeg Center
Fri 05:54:18 PM 48.7667 -90.2333 131° Southeast 300 345 20,900 -850 Descending Winnipeg Center
Fri 05:55:18 PM 48.7333 -90.1333 117° Southeast 310 357 19,400 -1,700 Descending Winnipeg Center
Fri 05:56:18 PM 48.6833 -90.0167 123° Southeast 350 403 17,500 -1,850 Descending Winnipeg Center
Fri 05:57:18 PM 48.6167 -89.9000 131° Southeast 350 403 15,700 -1,850 Descending Winnipeg Center
Fri 05:58:18 PM 48.6000 -89.7500 99° East 330 380 13,800 -2,000 Descending Winnipeg Center
Fri 05:59:18 PM 48.6000 -89.6333 90° East 310 357 11,700 -1,950 Descending Winnipeg Center
Fri 06:00:18 PM 48.5833 -89.5000 101° East 300 345 9,900 -1,650 Descending Winnipeg Center
Fri 06:01:18 PM 48.5833 -89.3833 90° East 300 345 8,400 -1,600 Descending Winnipeg Center
Fri 06:02:18 PM 48.5500 -89.2500 111° Southeast 300 345 6,700 -1,800 Descending Winnipeg Center
Fri 06:03:18 PM 48.5333 -89.1500 104° East 250 288 4,800 -1,750 Descending Winnipeg Center
Fri 06:04:18 PM 48.4833 -89.1333 168° South 160 184 3,200 -900 Descending Winnipeg Center
Fri 06:05:18 PM 48.4500 -89.1667 214° Southwest 150 173 3,000 -150 Descending Winnipeg Center
Fri 06:06:18 PM 48.4167 -89.1667 180° South 130 150 2,900 -550 Descending Winnipeg Center
Fri 06:07:18 PM 48.3833 -89.2000 214° Southwest 120 138 1,900 -950 Descending Winnipeg Center
Fri 06:08:18 PM 48.3500 -89.2333 214° Southwest 120 138 1,000 -650 Descending Winnipeg Center
Fri 06:09:18 PM 48.3667 -89.2833 297° West 120 138 600 -400 Descending Winnipeg Center

Login

Don't have an account? Register now (free) for customized features, flight alerts, and more!